createdAt,value
2019-06-15T00:02:20.207Z,87.70
2019-06-15T00:04:48.087Z,87.70
2019-06-15T00:07:15.896Z,87.60
2019-06-15T00:09:44.008Z,87.60
2019-06-15T00:12:11.782Z,87.60
2019-06-15T00:14:39.553Z,87.60
2019-06-15T00:17:07.439Z,87.70
2019-06-15T00:19:37.590Z,87.80
2019-06-15T00:22:05.345Z,86.90
2019-06-15T00:24:35.547Z,86.00
2019-06-15T00:27:02.917Z,86.00
2019-06-15T00:29:30.784Z,85.70
2019-06-15T00:31:58.597Z,85.60
2019-06-15T00:34:26.341Z,85.60
2019-06-15T00:36:54.118Z,85.00
2019-06-15T00:39:22.110Z,84.70
2019-06-15T00:41:50.174Z,85.00
2019-06-15T00:44:17.956Z,84.90
2019-06-15T00:46:45.692Z,84.70
2019-06-15T00:49:13.476Z,84.10
2019-06-15T00:51:41.288Z,83.80
2019-06-15T00:54:09.028Z,83.70
2019-06-15T00:56:36.800Z,82.40
2019-06-15T00:59:04.619Z,81.80
2019-06-15T01:01:35.361Z,82.20
2019-06-15T01:04:02.319Z,82.90
2019-06-15T01:06:30.159Z,82.50
2019-06-15T01:08:57.876Z,83.20
2019-06-15T01:11:25.616Z,83.80
2019-06-15T01:13:53.403Z,84.80
2019-06-15T01:16:21.234Z,85.30
2019-06-15T01:18:49.110Z,84.90
2019-06-15T01:21:16.873Z,85.40
2019-06-15T01:23:44.633Z,85.10
2019-06-15T01:26:12.466Z,85.20
2019-06-15T01:28:40.447Z,85.50
2019-06-15T01:31:08.251Z,85.60
2019-06-15T01:33:35.982Z,86.40
2019-06-15T01:36:03.816Z,85.90
2019-06-15T01:38:31.764Z,85.60
2019-06-15T01:40:59.800Z,86.40
2019-06-15T01:43:27.576Z,85.50
2019-06-15T01:45:55.464Z,85.00
2019-06-15T01:48:23.453Z,84.00
2019-06-15T01:50:51.177Z,83.40
2019-06-15T01:53:18.973Z,83.10
2019-06-15T01:55:46.740Z,83.10
2019-06-15T01:58:14.567Z,83.10
2019-06-15T02:00:43.160Z,84.70
2019-06-15T02:03:10.901Z,85.60
2019-06-15T02:05:38.800Z,86.30
2019-06-15T02:08:06.513Z,87.60
2019-06-15T02:10:34.451Z,87.70
2019-06-15T02:13:02.191Z,87.70
2019-06-15T02:15:29.999Z,87.70
2019-06-15T02:17:57.816Z,87.70
2019-06-15T02:20:25.669Z,87.60
2019-06-15T02:22:53.442Z,87.80
2019-06-15T02:25:35.401Z,82.60
2019-06-15T02:27:56.907Z,79.40
2019-06-15T02:30:29.691Z,77.70
2019-06-15T02:32:57.865Z,75.40
2019-06-15T02:35:25.854Z,73.50
2019-06-15T02:37:53.809Z,72.00
2019-06-15T02:40:21.719Z,70.00
2019-06-15T02:42:49.781Z,70.10
2019-06-15T02:45:17.626Z,67.90
2019-06-15T02:47:45.423Z,67.90
2019-06-15T02:50:13.779Z,68.00
2019-06-15T02:52:42.203Z,68.00
2019-06-15T02:55:10.062Z,68.10
2019-06-15T02:57:37.749Z,69.10
2019-06-15T03:00:05.962Z,70.60
2019-06-15T03:02:33.809Z,70.10
2019-06-15T03:05:01.743Z,71.00
2019-06-15T03:07:29.521Z,71.50
2019-06-15T03:09:57.249Z,70.90
2019-06-15T03:12:25.183Z,71.10
2019-06-15T03:14:53.727Z,71.90
2019-06-15T03:17:21.526Z,71.90
2019-06-15T03:19:49.453Z,72.20
2019-06-15T03:22:17.261Z,73.00
2019-06-15T03:24:45.005Z,72.40
2019-06-15T03:27:12.828Z,73.90
2019-06-15T03:29:40.900Z,74.10
2019-06-15T03:32:08.604Z,75.00
2019-06-15T03:34:36.426Z,75.00
2019-06-15T03:37:04.415Z,75.60
2019-06-15T03:39:32.224Z,76.30
2019-06-15T03:42:00.002Z,76.20
2019-06-15T03:44:29.532Z,76.00
2019-06-15T03:46:57.343Z,76.70
2019-06-15T03:49:25.190Z,76.90
2019-06-15T03:51:53.038Z,77.40
2019-06-15T03:54:20.849Z,77.20
2019-06-15T03:56:48.585Z,75.70
2019-06-15T03:59:16.553Z,76.40
2019-06-15T04:01:49.315Z,77.10
2019-06-15T04:04:17.184Z,76.00
2019-06-15T04:06:45.232Z,76.50
2019-06-15T04:09:13.169Z,76.40
2019-06-15T04:11:40.973Z,77.20
2019-06-15T04:14:08.750Z,76.10
2019-06-15T04:16:36.552Z,76.70
2019-06-15T04:19:04.332Z,77.50
2019-06-15T04:21:32.231Z,76.30
2019-06-15T04:23:59.989Z,76.00
2019-06-15T04:26:35.626Z,76.40
2019-06-15T04:28:57.472Z,75.50
2019-06-15T04:31:25.244Z,75.00
2019-06-15T04:33:53.175Z,73.50
2019-06-15T04:36:20.977Z,74.40
2019-06-15T04:38:48.761Z,73.50
2019-06-15T04:41:16.542Z,74.50
2019-06-15T04:43:44.305Z,74.50
2019-06-15T04:46:12.097Z,73.80
2019-06-15T04:48:39.903Z,73.50
2019-06-15T04:51:07.626Z,74.40
2019-06-15T04:53:36.679Z,73.80
2019-06-15T04:56:04.515Z,74.10
2019-06-15T04:58:32.433Z,72.80
2019-06-15T05:01:00.184Z,73.10
2019-06-15T05:03:27.932Z,72.40
2019-06-15T05:05:55.780Z,71.00
2019-06-15T05:08:23.765Z,71.40
2019-06-15T05:10:51.543Z,69.70
2019-06-15T05:13:19.346Z,69.10
2019-06-15T05:15:47.083Z,69.10
2019-06-15T05:18:15.110Z,69.30
2019-06-15T05:20:42.911Z,68.50
2019-06-15T05:23:10.772Z,68.80
2019-06-15T05:25:38.537Z,66.80
2019-06-15T05:28:06.524Z,63.80
2019-06-15T05:30:34.270Z,62.80
2019-06-15T05:33:02.063Z,61.50
2019-06-15T05:35:29.869Z,61.60
2019-06-15T05:37:57.864Z,59.70
2019-06-15T05:40:25.640Z,60.00
2019-06-15T05:42:53.516Z,58.90
2019-06-15T05:45:21.335Z,58.70
2019-06-15T05:47:49.213Z,56.80
2019-06-15T05:50:18.495Z,56.20
2019-06-15T05:52:46.251Z,53.80
2019-06-15T05:55:14.341Z,51.60
2019-06-15T05:57:42.176Z,48.40
2019-06-15T06:00:10.726Z,44.90
2019-06-15T06:02:38.524Z,42.00
2019-06-15T06:05:07.179Z,42.20
2019-06-15T06:07:34.939Z,40.10
2019-06-15T06:10:03.255Z,38.50
2019-06-15T06:12:31.057Z,39.50
2019-06-15T06:14:58.852Z,37.70
2019-06-15T06:17:26.574Z,37.80
2019-06-15T06:19:54.376Z,36.10
2019-06-15T06:22:22.105Z,39.00
2019-06-15T06:24:49.995Z,39.60
2019-06-15T06:27:17.775Z,39.80
2019-06-15T06:29:45.871Z,41.30
2019-06-15T06:32:13.729Z,40.80
2019-06-15T06:34:41.571Z,40.90
2019-06-15T06:37:09.375Z,43.30
2019-06-15T06:39:37.207Z,46.40
2019-06-15T06:42:04.941Z,46.30
2019-06-15T06:44:32.744Z,46.80
2019-06-15T06:47:00.494Z,49.20
2019-06-15T06:49:28.567Z,49.80
2019-06-15T06:51:56.429Z,46.30
2019-06-15T06:54:24.220Z,43.80
2019-06-15T06:56:52.060Z,41.20
2019-06-15T06:59:19.952Z,38.10
2019-06-15T07:01:47.750Z,34.70
2019-06-15T07:04:15.490Z,32.50
2019-06-15T07:06:43.335Z,30.30
2019-06-15T07:09:12.735Z,29.30
2019-06-15T07:11:40.471Z,29.50
2019-06-15T07:14:08.241Z,27.90
2019-06-15T07:16:36.036Z,27.50
2019-06-15T07:19:03.868Z,25.10
2019-06-15T07:21:31.628Z,26.20
2019-06-15T07:23:59.384Z,25.80
2019-06-15T07:26:27.241Z,25.60
2019-06-15T07:28:55.116Z,24.30
2019-06-15T07:31:22.937Z,24.50
2019-06-15T07:33:50.711Z,24.70
2019-06-15T07:36:18.522Z,24.40
2019-06-15T07:38:46.640Z,22.60
2019-06-15T07:41:14.406Z,22.80
2019-06-15T07:43:42.269Z,22.70
2019-06-15T07:46:10.099Z,23.50
2019-06-15T07:48:37.960Z,22.70
2019-06-15T07:51:05.745Z,22.60
2019-06-15T07:53:33.479Z,21.80
2019-06-15T07:56:01.257Z,24.00
2019-06-15T07:58:29.082Z,26.50
2019-06-15T08:00:56.877Z,28.50
2019-06-15T08:03:24.732Z,30.00
2019-06-15T08:05:52.581Z,31.10
2019-06-15T08:08:25.741Z,32.50
2019-06-15T08:10:53.494Z,34.40
2019-06-15T08:13:21.417Z,34.20
2019-06-15T08:15:49.303Z,33.90
2019-06-15T08:18:17.385Z,33.30
2019-06-15T08:20:45.183Z,33.40
2019-06-15T08:23:13.029Z,31.40
2019-06-15T08:25:40.793Z,31.40
2019-06-15T08:28:08.680Z,31.60
2019-06-15T08:30:42.506Z,29.40
2019-06-15T08:33:10.555Z,27.90
2019-06-15T08:35:38.436Z,25.30
2019-06-15T08:38:07.261Z,24.20
2019-06-15T08:40:35.005Z,24.50
2019-06-15T08:43:02.856Z,23.90
2019-06-15T08:45:31.018Z,23.20
2019-06-15T08:47:58.826Z,25.10
2019-06-15T08:50:26.622Z,26.00
2019-06-15T08:52:54.360Z,26.60
2019-06-15T08:55:22.169Z,27.20
2019-06-15T08:57:49.982Z,25.70
2019-06-15T09:00:18.309Z,24.20
2019-06-15T09:02:46.318Z,24.60
2019-06-15T09:05:14.082Z,22.80
2019-06-15T09:07:41.860Z,21.00
2019-06-15T09:10:10.045Z,21.00
2019-06-15T09:12:37.832Z,24.00
2019-06-15T09:15:33.397Z,24.50
2019-06-15T09:18:01.164Z,26.90
2019-06-15T09:20:28.961Z,25.70
2019-06-15T09:22:56.767Z,24.20
2019-06-15T09:25:24.506Z,24.10
2019-06-15T09:27:52.508Z,23.60
2019-06-15T09:30:20.273Z,25.10
2019-06-15T09:32:48.111Z,28.50
2019-06-15T09:35:15.881Z,31.10
2019-06-15T09:37:43.989Z,29.60
2019-06-15T09:40:12.129Z,29.60
2019-06-15T09:42:39.939Z,27.40
2019-06-15T09:45:09.004Z,26.60
2019-06-15T09:47:36.759Z,24.00
2019-06-15T09:50:04.810Z,25.70
2019-06-15T09:52:32.615Z,29.20
2019-06-15T09:55:00.330Z,30.80
2019-06-15T09:57:28.113Z,34.10
2019-06-15T09:59:55.889Z,36.60
2019-06-15T10:02:23.710Z,38.60
2019-06-15T10:04:51.548Z,39.40
2019-06-15T10:07:19.375Z,37.80
2019-06-15T10:09:47.268Z,38.30
2019-06-15T10:12:15.179Z,38.70
2019-06-15T10:14:42.976Z,40.30
2019-06-15T10:17:10.800Z,40.60
2019-06-15T10:19:38.650Z,41.40
2019-06-15T10:22:08.437Z,42.10
2019-06-15T10:25:55.678Z,42.80
2019-06-15T10:28:57.263Z,43.90
2019-06-15T10:31:25.394Z,43.00
2019-06-15T10:33:53.492Z,43.80
2019-06-15T10:36:21.305Z,42.60
2019-06-15T10:38:49.501Z,41.30
2019-06-15T10:41:17.342Z,38.50
2019-06-15T10:43:47.526Z,38.50
2019-06-15T10:46:15.424Z,38.70
2019-06-15T10:48:43.668Z,38.90
2019-06-15T10:51:11.553Z,37.70
2019-06-15T10:53:41.007Z,32.30
2019-06-15T10:56:09.021Z,31.70
2019-06-15T10:58:37.440Z,31.20
2019-06-15T11:01:05.676Z,33.20
2019-06-15T11:03:33.960Z,33.80
2019-06-15T11:06:01.868Z,35.70
2019-06-15T11:08:32.436Z,37.20
2019-06-15T11:11:23.623Z,37.80
2019-06-15T11:13:52.184Z,37.00
2019-06-15T11:16:26.846Z,38.30
2019-06-15T11:19:49.893Z,37.20
2019-06-15T11:22:05.620Z,34.30
2019-06-15T11:24:50.084Z,32.60
2019-06-15T11:27:26.825Z,33.80
2019-06-15T11:30:19.465Z,35.20
2019-06-15T11:32:47.175Z,35.60
2019-06-15T11:35:15.006Z,36.20
2019-06-15T11:37:42.828Z,36.10
2019-06-15T11:40:11.433Z,36.50
2019-06-15T11:42:39.188Z,35.00
2019-06-15T11:45:07.117Z,34.60
2019-06-15T11:47:34.994Z,34.20
2019-06-15T11:50:03.405Z,31.70
2019-06-15T11:52:31.256Z,31.80
2019-06-15T11:54:59.039Z,30.50
2019-06-15T11:57:26.899Z,28.40
2019-06-15T11:59:54.744Z,26.40
2019-06-15T12:02:22.509Z,26.60
2019-06-15T12:04:58.477Z,27.60
2019-06-15T12:07:20.060Z,28.60
2019-06-15T12:09:47.879Z,27.50
2019-06-15T12:12:15.636Z,27.30
2019-06-15T12:14:43.400Z,26.60
2019-06-15T12:17:11.287Z,26.50
2019-06-15T12:19:39.191Z,27.20
2019-06-15T12:22:07.005Z,26.30
2019-06-15T12:24:34.807Z,26.50
2019-06-15T12:27:02.634Z,28.70
2019-06-15T12:29:30.429Z,29.30
2019-06-15T12:31:58.221Z,29.30
2019-06-15T12:34:25.980Z,28.70
2019-06-15T12:36:53.872Z,29.90
2019-06-15T12:39:21.905Z,31.40
2019-06-15T12:41:49.764Z,31.30
2019-06-15T12:44:17.586Z,31.00
2019-06-15T12:46:45.463Z,33.10
2019-06-15T12:49:13.278Z,34.20
2019-06-15T12:51:41.131Z,36.00
2019-06-15T12:54:08.957Z,32.30
2019-06-15T12:56:36.856Z,31.70
2019-06-15T12:59:04.661Z,30.70
2019-06-15T13:01:32.800Z,29.60
2019-06-15T13:04:00.688Z,30.00
2019-06-15T13:06:29.269Z,31.20
2019-06-15T13:08:57.062Z,30.70
2019-06-15T13:11:25.027Z,31.70
2019-06-15T13:13:52.852Z,31.50
2019-06-15T13:16:20.686Z,31.30
2019-06-15T13:18:48.640Z,31.50
2019-06-15T13:21:16.499Z,30.80
2019-06-15T13:23:44.400Z,30.10
2019-06-15T13:26:12.241Z,29.60
2019-06-15T13:28:40.189Z,29.90
2019-06-15T13:31:17.635Z,30.10
2019-06-15T13:33:37.737Z,31.30
2019-06-15T13:36:05.612Z,31.10
2019-06-15T13:38:33.508Z,33.00
2019-06-15T13:41:01.459Z,34.60
2019-06-15T13:43:29.299Z,35.70
2019-06-15T13:45:57.123Z,36.20
2019-06-15T13:48:24.986Z,36.00
2019-06-15T13:50:52.911Z,35.50
2019-06-15T13:53:20.793Z,32.40
2019-06-15T13:55:48.581Z,31.40
2019-06-15T13:58:16.445Z,31.40
2019-06-15T14:00:44.263Z,28.20
2019-06-15T14:03:12.176Z,28.90
2019-06-15T14:05:40.671Z,27.50
2019-06-15T14:08:08.456Z,26.20
2019-06-15T14:14:35.976Z,26.10
2019-06-15T14:17:03.807Z,25.60
2019-06-15T14:19:31.584Z,26.80
2019-06-15T14:21:59.763Z,27.40
2019-06-15T14:24:27.603Z,27.90
2019-06-15T14:26:55.378Z,27.20
2019-06-15T14:29:23.194Z,25.00
2019-06-15T14:31:51.373Z,25.70
2019-06-15T14:34:19.448Z,25.00
2019-06-15T14:36:47.215Z,25.30
2019-06-15T14:39:24.100Z,25.10
2019-06-15T14:41:51.960Z,25.30
2019-06-15T14:44:21.546Z,27.00
2019-06-15T14:46:49.398Z,27.00
2019-06-15T14:49:17.168Z,28.00
2019-06-15T14:51:45.169Z,26.50
2019-06-15T14:54:12.932Z,26.50
2019-06-15T14:56:40.777Z,25.20
2019-06-15T14:59:08.568Z,24.80
2019-06-15T15:01:36.562Z,23.80
2019-06-15T15:04:41.904Z,23.90
2019-06-15T15:07:09.738Z,23.60
2019-06-15T15:09:37.534Z,23.80
2019-06-15T15:12:05.369Z,24.00
2019-06-15T15:14:33.149Z,24.00
2019-06-15T15:17:00.962Z,23.90
2019-06-15T15:19:28.746Z,23.90
2019-06-15T15:21:56.600Z,23.90
2019-06-15T15:24:27.101Z,23.70
2019-06-15T15:26:56.561Z,23.80
2019-06-15T15:29:26.822Z,24.30
2019-06-15T15:31:57.195Z,26.10
2019-06-15T15:34:26.099Z,26.80
2019-06-15T15:36:56.995Z,27.80
2019-06-15T15:39:27.114Z,28.80
2019-06-15T15:41:56.276Z,29.90
2019-06-15T15:44:26.699Z,31.50
2019-06-15T15:46:53.814Z,31.20
2019-06-15T15:49:21.695Z,30.70
2019-06-15T15:51:49.494Z,32.30
2019-06-15T15:54:17.414Z,33.40
2019-06-15T15:56:46.797Z,34.50
2019-06-15T15:59:16.254Z,33.70
2019-06-15T16:01:47.382Z,35.00
2019-06-15T16:04:17.068Z,35.90
2019-06-15T16:06:46.781Z,36.60
2019-06-15T16:09:16.830Z,36.10
2019-06-15T16:11:46.330Z,37.60
2019-06-15T16:14:16.298Z,38.90
2019-06-15T16:16:46.594Z,37.20
2019-06-15T16:19:13.679Z,38.50
2019-06-15T16:21:41.459Z,39.30
2019-06-15T16:24:09.265Z,39.40
2019-06-15T16:26:37.634Z,39.30
2019-06-15T16:29:06.874Z,38.70
2019-06-15T16:31:37.212Z,38.00
2019-06-15T16:34:04.653Z,36.00
2019-06-15T16:36:32.495Z,36.80
2019-06-15T16:39:00.249Z,35.50
2019-06-15T16:41:28.092Z,35.70
2019-06-15T16:43:56.671Z,35.50
2019-06-15T16:46:26.316Z,35.70
2019-06-15T16:48:56.962Z,35.70
2019-06-15T16:51:26.865Z,35.90
2019-06-15T16:53:56.893Z,36.10
2019-06-15T16:56:26.645Z,36.30
2019-06-15T16:58:55.846Z,36.80
2019-06-15T17:01:23.466Z,37.30
2019-06-15T17:03:51.314Z,37.40
2019-06-15T17:06:26.795Z,37.60
2019-06-15T17:08:59.532Z,38.00
2019-06-15T17:11:27.379Z,36.90
2019-06-15T17:13:56.286Z,36.20
2019-06-15T17:16:26.062Z,36.70
2019-06-15T17:18:56.257Z,37.40
2019-06-15T17:21:26.013Z,36.50
2019-06-15T17:23:53.867Z,37.10
2019-06-15T17:26:21.887Z,36.70
2019-06-15T17:28:57.510Z,36.40
2019-06-15T17:31:27.190Z,36.70
2019-06-15T17:34:07.354Z,36.20
2019-06-15T17:36:36.802Z,36.80
2019-06-15T17:39:06.044Z,36.50
2019-06-15T17:41:36.446Z,38.70
2019-06-15T17:44:05.926Z,37.10
2019-06-15T17:46:33.467Z,36.90
2019-06-15T17:49:01.298Z,37.50
2019-06-15T17:51:29.165Z,37.10
2019-06-15T17:53:57.449Z,38.10
2019-06-15T17:56:26.806Z,39.00
2019-06-15T17:58:54.704Z,40.40
2019-06-15T18:01:22.542Z,40.40
2019-06-15T18:03:54.594Z,40.20
2019-06-15T18:06:43.798Z,40.20
2019-06-15T18:09:11.572Z,40.30
2019-06-15T18:11:39.347Z,40.90
2019-06-15T18:14:09.148Z,41.20
2019-06-15T18:16:37.053Z,41.80
2019-06-15T18:19:06.985Z,42.20
2019-06-15T18:21:37.885Z,42.70
2019-06-15T18:24:06.524Z,43.00
2019-06-15T18:26:36.391Z,44.30
2019-06-15T18:29:03.769Z,45.10
2019-06-15T18:31:31.563Z,46.80
2019-06-15T18:34:09.519Z,47.00
2019-06-15T18:36:29.015Z,45.70
2019-06-15T18:38:57.606Z,48.00
2019-06-15T18:41:26.604Z,47.60
2019-06-15T18:43:56.488Z,48.10
2019-06-15T18:46:24.199Z,48.70
2019-06-15T18:48:51.967Z,49.40
2019-06-15T18:51:19.811Z,49.50
2019-06-15T18:53:47.651Z,49.30
2019-06-15T18:56:16.313Z,49.50
2019-06-15T18:58:44.365Z,50.10
2019-06-15T19:01:12.174Z,52.00
2019-06-15T19:03:40.218Z,52.30
2019-06-15T19:06:08.003Z,53.00
2019-06-15T19:08:35.784Z,54.20
2019-06-15T19:11:03.690Z,54.80
2019-06-15T19:13:31.490Z,55.80
2019-06-15T19:15:59.347Z,54.50
2019-06-15T19:18:27.136Z,56.80
2019-06-15T19:20:56.199Z,56.00
2019-06-15T19:23:26.432Z,57.50
2019-06-15T19:25:53.878Z,58.70
2019-06-15T19:28:22.199Z,58.80
2019-06-15T19:30:50.390Z,57.90
2019-06-15T19:33:18.624Z,58.60
2019-06-15T19:35:46.820Z,58.60
2019-06-15T19:38:17.171Z,58.60
2019-06-15T19:40:46.072Z,58.50
2019-06-15T19:43:16.238Z,60.00
2019-06-15T19:45:45.040Z,59.90
2019-06-15T19:48:17.013Z,61.60
2019-06-15T19:51:03.930Z,62.20
2019-06-15T19:53:36.426Z,63.00
2019-06-15T19:56:06.911Z,62.50
2019-06-15T19:58:35.925Z,62.50
2019-06-15T20:01:06.712Z,62.80
2019-06-15T20:03:39.347Z,63.30
2019-06-15T20:06:21.851Z,64.10
2019-06-15T20:08:51.663Z,64.80
2019-06-15T20:11:21.061Z,65.10
2019-06-15T20:13:56.154Z,64.60
2019-06-15T20:16:25.773Z,64.90
2019-06-15T20:18:56.318Z,65.80
2019-06-15T20:21:25.224Z,66.10
2019-06-15T20:23:56.434Z,68.40
2019-06-15T20:26:27.078Z,68.10
2019-06-15T20:28:56.861Z,68.20
2019-06-15T20:31:25.477Z,68.10
2019-06-15T20:33:57.005Z,68.20
2019-06-15T20:36:28.620Z,68.80
2019-06-15T20:39:06.971Z,69.00
2019-06-15T20:41:36.380Z,69.00
2019-06-15T20:44:08.175Z,69.30
2019-06-15T20:46:37.098Z,68.70
2019-06-15T20:49:06.475Z,68.40
2019-06-15T20:51:37.102Z,69.20
2019-06-15T20:54:06.979Z,68.50
2019-06-15T20:56:37.432Z,69.20
2019-06-15T20:59:06.315Z,69.80
2019-06-15T21:01:36.900Z,70.20
2019-06-15T21:04:07.003Z,70.60
2019-06-15T21:06:37.207Z,70.10
2019-06-15T21:09:07.128Z,72.00
2019-06-15T21:11:36.199Z,72.80
2019-06-15T21:14:05.460Z,73.70
2019-06-15T21:16:36.805Z,73.60
2019-06-15T21:19:06.531Z,73.60
2019-06-15T21:21:37.231Z,73.00
2019-06-15T21:24:06.431Z,72.40
2019-06-15T21:26:35.521Z,73.10
2019-06-15T21:29:06.411Z,73.90
2019-06-15T21:31:36.794Z,74.80
2019-06-15T21:34:08.214Z,75.20
2019-06-15T21:36:37.610Z,75.50
2019-06-15T21:39:07.189Z,76.20
2019-06-15T21:41:36.713Z,76.70
2019-06-15T21:44:06.300Z,77.10
2019-06-15T21:46:36.130Z,77.20
2019-06-15T21:49:07.354Z,77.40
2019-06-15T21:51:36.666Z,77.30
2019-06-15T21:54:07.004Z,77.30
2019-06-15T21:56:36.781Z,78.00
2019-06-15T21:59:07.510Z,78.70
2019-06-15T22:01:37.431Z,79.30
2019-06-15T22:04:06.798Z,79.40
2019-06-15T22:06:37.315Z,79.40
2019-06-15T22:09:11.832Z,79.00
2019-06-15T22:11:41.463Z,78.90
2019-06-15T22:14:10.293Z,79.70
2019-06-15T22:16:39.547Z,80.20
2019-06-15T22:19:07.655Z,80.30
2019-06-15T22:21:36.657Z,80.80
2019-06-15T22:24:06.909Z,81.20
2019-06-15T22:26:35.229Z,81.80
2019-06-15T22:29:03.395Z,81.40
2019-06-15T22:31:31.797Z,81.30
2019-06-15T22:34:00.293Z,81.10
2019-06-15T22:36:28.846Z,81.00
2019-06-15T22:38:57.223Z,81.20
2019-06-15T22:41:46.950Z,81.50
2019-06-15T22:44:16.931Z,81.70
2019-06-15T22:46:46.436Z,81.30
2019-06-15T22:49:16.150Z,81.40
2019-06-15T22:52:06.476Z,80.90
2019-06-15T22:54:37.379Z,81.50
2019-06-15T22:57:06.150Z,80.80
2019-06-15T22:59:34.607Z,81.20
2019-06-15T23:02:02.756Z,81.90
2019-06-15T23:04:31.031Z,81.80
2019-06-15T23:06:59.277Z,81.90
2019-06-15T23:09:27.457Z,82.00
2019-06-15T23:11:56.584Z,82.20
2019-06-15T23:14:26.165Z,81.50
2019-06-15T23:16:56.797Z,81.30
2019-06-15T23:19:26.194Z,80.80
2019-06-15T23:22:07.759Z,81.60
2019-06-15T23:24:36.381Z,81.80
2019-06-15T23:27:06.748Z,81.80
2019-06-15T23:29:36.794Z,81.00
2019-06-15T23:32:06.283Z,80.60
2019-06-15T23:34:34.756Z,80.60
2019-06-15T23:37:06.700Z,80.80
2019-06-15T23:39:36.121Z,80.60
2019-06-15T23:42:06.162Z,79.90
2019-06-15T23:44:36.132Z,79.50
2019-06-15T23:47:04.088Z,79.00
2019-06-15T23:49:31.835Z,78.10
2019-06-15T23:51:59.664Z,78.30
2019-06-15T23:54:27.917Z,77.60
2019-06-15T23:56:56.947Z,78.10
2019-06-15T23:59:26.452Z,78.30
